createdAt,value
2023-01-19T00:03:53.879Z,99758.81
2023-01-19T00:08:57.267Z,99758.91
2023-01-19T00:14:01.306Z,99749.25
2023-01-19T00:19:10.852Z,99764.28
2023-01-19T00:24:12.296Z,99752.88
2023-01-19T00:29:23.630Z,99752.34
2023-01-19T00:34:27.451Z,99762.03
2023-01-19T00:39:38.002Z,99766.06
2023-01-19T00:44:41.898Z,99764.28
2023-01-19T00:49:48.581Z,99751.72
2023-01-19T00:54:50.824Z,99742.06
2023-01-19T00:59:53.657Z,99750.56
2023-01-19T01:04:55.091Z,99755.09
2023-01-19T01:10:02.481Z,99753.44
2023-01-19T01:15:05.900Z,99754.13
2023-01-19T01:20:07.935Z,99752.81
2023-01-19T01:25:09.544Z,99752.34
2023-01-19T01:35:41.963Z,99771.75
2023-01-19T01:40:48.368Z,99782.53
2023-01-19T01:45:49.897Z,99783.00
2023-01-19T01:50:59.263Z,99786.25
2023-01-19T01:56:03.478Z,99787.00
2023-01-19T02:01:10.532Z,99783.25
2023-01-19T02:06:13.027Z,99766.13
2023-01-19T02:11:24.731Z,99772.50
2023-01-19T02:16:26.429Z,99765.66
2023-01-19T02:21:38.672Z,99766.34
2023-01-19T02:26:47.726Z,99762.22
2023-01-19T02:31:53.885Z,99769.00
2023-01-19T02:37:01.431Z,99762.94
2023-01-19T02:47:46.872Z,99756.38
2023-01-19T02:52:49.603Z,99770.28
2023-01-19T02:58:20.425Z,99764.88
2023-01-19T03:03:53.063Z,99769.94
2023-01-19T03:09:20.921Z,99764.72
2023-01-19T03:14:28.745Z,99775.84
2023-01-19T03:19:37.585Z,99767.63
2023-01-19T03:24:44.960Z,99773.53
2023-01-19T03:30:00.648Z,99772.25
2023-01-19T03:35:07.105Z,99764.88
2023-01-19T03:40:10.037Z,99764.06
2023-01-19T03:45:13.807Z,99764.22
2023-01-19T03:50:25.434Z,99764.75
2023-01-19T03:55:27.090Z,99773.59
2023-01-19T04:00:31.343Z,99773.91
2023-01-19T04:05:33.402Z,99775.03
2023-01-19T04:10:35.073Z,99778.66
2023-01-19T04:15:40.040Z,99769.00
2023-01-19T04:20:41.738Z,99766.84
2023-01-19T04:25:43.395Z,99757.69
2023-01-19T04:31:07.894Z,99758.66
2023-01-19T04:36:09.476Z,99767.66
2023-01-19T04:41:11.168Z,99768.31
2023-01-19T04:46:12.804Z,99770.94
2023-01-19T04:51:39.101Z,99785.97
2023-01-19T04:56:40.922Z,99785.66
2023-01-19T05:01:42.697Z,99785.97
2023-01-19T05:06:44.229Z,99776.47
2023-01-19T05:11:45.760Z,99777.13
2023-01-19T05:16:47.260Z,99777.78
2023-01-19T05:21:48.776Z,99789.72
2023-01-19T05:26:50.359Z,99793.84
2023-01-19T05:31:53.157Z,99791.69
2023-01-19T05:36:57.650Z,99800.53
2023-01-19T05:41:59.115Z,99804.00
2023-01-19T05:47:00.626Z,99801.72
2023-01-19T05:52:02.266Z,99799.28
2023-01-19T05:57:03.671Z,99799.91
2023-01-19T06:02:05.247Z,99801.22
2023-01-19T06:07:14.357Z,99796.47
2023-01-19T06:17:44.270Z,99803.34
2023-01-19T06:22:53.457Z,99800.22
2023-01-19T06:27:55.148Z,99805.28
2023-01-19T06:32:59.190Z,99818.38
2023-01-19T06:38:01.116Z,99818.69
2023-01-19T06:43:02.974Z,99831.47
2023-01-19T06:48:16.714Z,99846.03
2023-01-19T06:53:21.336Z,99846.50
2023-01-19T06:58:22.959Z,99854.38
2023-01-19T07:03:24.390Z,99866.63
2023-01-19T07:08:25.961Z,99863.50
2023-01-19T07:13:28.252Z,99871.38
2023-01-19T07:18:29.738Z,99876.94
2023-01-19T07:23:31.323Z,99874.97
2023-01-19T07:28:33.265Z,99883.81
2023-01-19T07:33:34.761Z,99890.03
2023-01-19T07:38:37.387Z,99895.78
2023-01-19T07:43:48.169Z,99898.88
2023-01-19T07:48:49.755Z,99896.75
2023-01-19T07:53:53.074Z,99905.16
2023-01-19T07:58:54.521Z,99915.28
2023-01-19T08:04:04.628Z,99920.38
2023-01-19T08:37:00.208Z,99971.38
2023-01-19T08:49:10.199Z,99984.16
2023-01-19T09:12:12.554Z,100000.56
2023-01-19T09:17:23.367Z,99991.41
2023-01-19T09:33:08.892Z,100003.22
2023-01-19T09:50:20.019Z,100022.91
2023-01-19T09:55:28.341Z,100030.47
2023-01-19T10:00:31.319Z,100029.47
2023-01-19T10:05:41.376Z,100046.03
2023-01-19T10:16:53.078Z,100048.00
2023-01-19T10:27:42.054Z,100063.91
2023-01-19T10:32:59.834Z,100061.75
2023-01-19T10:38:03.437Z,100061.25
2023-01-19T10:49:13.765Z,100051.78
2023-01-19T11:00:34.970Z,100057.81
2023-01-19T11:05:48.987Z,100064.50
2023-01-19T11:11:46.429Z,100070.41
2023-01-19T11:33:44.277Z,100062.47
2023-01-19T11:38:47.448Z,100067.34
2023-01-19T11:43:54.820Z,100064.91
2023-01-19T11:49:05.585Z,100073.78
2023-01-19T11:54:21.086Z,100066.59
2023-01-19T11:59:22.722Z,100061.41
2023-01-19T12:04:38.343Z,100063.69
2023-01-19T12:09:48.647Z,100073.72
2023-01-19T12:15:24.136Z,100074.97
2023-01-19T12:20:54.520Z,100076.88
2023-01-19T12:26:06.545Z,100078.56
2023-01-19T12:31:10.565Z,100072.63
2023-01-19T12:36:30.446Z,100070.25
2023-01-19T12:41:38.604Z,100076.88
2023-01-19T12:47:00.235Z,100078.84
2023-01-19T12:52:31.478Z,100084.56
2023-01-19T12:57:49.354Z,100086.91
2023-01-19T13:02:54.848Z,100087.28
2023-01-19T13:08:02.392Z,100082.44
2023-01-19T13:13:25.788Z,100075.44
2023-01-19T13:18:33.140Z,100093.44
2023-01-19T13:23:49.953Z,100103.47
2023-01-19T13:28:57.900Z,100095.69
2023-01-19T13:34:01.820Z,100094.97
2023-01-19T13:39:06.435Z,100107.47
2023-01-19T13:44:43.163Z,100095.72
2023-01-19T13:49:46.431Z,100102.28
2023-01-19T13:55:04.211Z,100103.25
2023-01-19T14:00:16.105Z,100107.09
2023-01-19T14:05:35.263Z,100110.34
2023-01-19T14:10:55.914Z,100108.09
2023-01-19T14:16:00.749Z,100112.78
2023-01-19T14:21:10.789Z,100116.88
2023-01-19T14:26:46.160Z,100124.09
2023-01-19T14:31:50.403Z,100126.66
2023-01-19T14:36:51.903Z,100131.09
2023-01-19T14:41:55.131Z,100139.03
2023-01-19T14:46:57.438Z,100140.00
2023-01-19T14:52:01.683Z,100146.66
2023-01-19T14:57:03.163Z,100141.56
2023-01-19T15:02:04.705Z,100151.72
2023-01-19T15:07:06.862Z,100153.31
2023-01-19T15:12:13.375Z,100158.47
2023-01-19T15:17:22.604Z,100173.28
2023-01-19T15:22:25.892Z,100167.97
2023-01-19T15:27:29.283Z,100167.94
2023-01-19T15:32:30.765Z,100170.31
2023-01-19T15:37:32.235Z,100169.53
2023-01-19T15:42:33.683Z,100170.34
2023-01-19T15:47:35.273Z,100171.41
2023-01-19T15:52:36.763Z,100171.59
2023-01-19T15:57:38.464Z,100182.78
2023-01-19T16:02:40.093Z,100179.97
2023-01-19T16:07:41.621Z,100189.50
2023-01-19T16:12:46.742Z,100190.19
2023-01-19T16:17:48.255Z,100195.28
2023-01-19T16:22:49.751Z,100195.44
2023-01-19T16:27:51.390Z,100204.81
2023-01-19T16:32:52.837Z,100205.81
2023-01-19T16:37:54.635Z,100223.06
2023-01-19T16:42:55.993Z,100218.97
2023-01-19T16:47:59.988Z,100219.31
2023-01-19T16:53:01.581Z,100228.84
2023-01-19T16:58:03.048Z,100229.50
2023-01-19T17:03:04.479Z,100228.03
2023-01-19T17:08:06.049Z,100238.53
2023-01-19T17:13:07.441Z,100240.19
2023-01-19T17:18:08.908Z,100250.69
2023-01-19T17:23:12.634Z,100254.28
2023-01-19T17:28:13.995Z,100248.22
2023-01-19T17:33:15.444Z,100248.03
2023-01-19T17:38:17.201Z,100257.56
2023-01-19T17:43:18.603Z,100259.22
2023-01-19T17:48:19.961Z,100263.97
2023-01-19T17:53:21.384Z,100275.44
2023-01-19T17:58:22.978Z,100272.66
2023-01-19T18:03:24.777Z,100274.00
2023-01-19T18:08:26.142Z,100272.50
2023-01-19T18:13:28.572Z,100268.91
2023-01-19T18:18:30.067Z,100274.63
2023-01-19T18:23:31.792Z,100275.13
2023-01-19T18:28:33.731Z,100270.03
2023-01-19T18:33:35.413Z,100284.00
2023-01-19T18:38:38.474Z,100288.75
2023-01-19T18:43:40.207Z,100283.16
2023-01-19T18:48:41.833Z,100286.25
2023-01-19T18:53:43.986Z,100291.00
2023-01-19T18:58:45.535Z,100284.25
2023-01-19T19:03:47.204Z,100292.78
2023-01-19T19:08:50.797Z,100291.59
2023-01-19T19:13:54.969Z,100298.16
2023-01-19T19:18:59.092Z,100291.56
2023-01-19T19:24:00.538Z,100289.78
2023-01-19T19:29:02.015Z,100293.88
2023-01-19T19:34:03.652Z,100294.03
2023-01-19T19:39:05.630Z,100302.06
2023-01-19T19:44:07.141Z,100302.88
2023-01-19T19:49:08.837Z,100306.56
2023-01-19T19:54:10.525Z,100315.56
2023-01-19T19:59:11.991Z,100311.09
2023-01-19T20:04:13.638Z,100314.47
2023-01-19T20:09:16.183Z,100328.69
2023-01-19T20:14:17.636Z,100329.91
2023-01-19T20:19:19.017Z,100336.72
2023-01-19T20:24:20.743Z,100333.84
2023-01-19T20:29:22.192Z,100347.47
2023-01-19T20:34:27.337Z,100341.53
2023-01-19T20:39:29.043Z,100354.72
2023-01-19T20:44:30.561Z,100347.31
2023-01-19T20:49:32.354Z,100360.56
2023-01-19T20:54:34.666Z,100367.69
2023-01-19T20:59:36.175Z,100367.53
2023-01-19T21:04:39.120Z,100378.16
2023-01-19T21:09:40.477Z,100383.25
2023-01-19T21:14:42.176Z,100389.91
2023-01-19T21:24:49.071Z,100404.16
2023-01-19T21:29:50.519Z,100408.03
2023-01-19T21:34:52.033Z,100415.53
2023-01-19T21:39:53.418Z,100425.47
2023-01-19T21:49:56.332Z,100433.06
2023-01-19T21:54:57.854Z,100440.22
2023-01-19T21:59:59.325Z,100434.75
2023-01-19T22:05:01.261Z,100443.59
2023-01-19T22:10:03.046Z,100455.63
2023-01-19T22:15:04.953Z,100464.31
2023-01-19T22:20:07.106Z,100467.66
2023-01-19T22:25:09.725Z,100466.81
2023-01-19T22:30:11.284Z,100481.69
2023-01-19T22:35:12.954Z,100486.13
2023-01-19T22:40:14.928Z,100478.13
2023-01-19T22:45:16.395Z,100490.09
2023-01-19T22:50:17.971Z,100483.13
2023-01-19T22:55:19.348Z,100486.41
2023-01-19T23:00:21.632Z,100486.41
2023-01-19T23:05:23.083Z,100497.44
2023-01-19T23:10:24.651Z,100498.28
2023-01-19T23:15:26.118Z,100502.31
2023-01-19T23:20:27.515Z,100496.09
2023-01-19T23:25:31.330Z,100510.72
2023-01-19T23:30:32.773Z,100514.31
2023-01-19T23:35:34.776Z,100521.22
2023-01-19T23:40:36.164Z,100526.63
2023-01-19T23:45:37.801Z,100536.41
2023-01-19T23:50:40.281Z,100544.94
2023-01-19T23:55:41.991Z,100537.88
